Time;durP1;ratioP1;P1;durP2;ratioP2;P2;SDS_P1;SDS_P2;PMS_P1;PMS_P2;Temp;Humidity;BMP_temperature;BMP_pressure;BME280_temperature;BME280_humidity;BME280_pressure;Samples;Min_cycle;Max_cycle;Signal;HPM_P1;HPM_P2
2023/10/27 00:00:08;;;;;;;5.43;2.13;;;;;;;14.45;66.10;95061.03;4909099;28;20251;-81
2023/10/27 00:02:38;;;;;;;3.70;1.55;;;;;;;14.42;65.66;95067.66;4906179;28;20199;-80
2023/10/27 00:05:05;;;;;;;5.25;1.58;;;;;;;14.40;66.22;95060.13;4898921;28;20246;-81
2023/10/27 00:07:33;;;;;;;3.75;1.40;;;;;;;14.41;66.09;95064.28;4910536;28;20805;-80
2023/10/27 00:09:58;;;;;;;5.18;1.70;;;;;;;14.37;65.91;95055.53;4904991;28;20184;-81
2023/10/27 00:12:24;;;;;;;5.45;2.08;;;;;;;14.44;66.03;95057.63;4928439;28;20325;-81
2023/10/27 00:14:49;;;;;;;9.38;1.90;;;;;;;14.45;65.92;95064.41;4926947;28;20305;-80
2023/10/27 00:17:14;;;;;;;6.55;2.35;;;;;;;14.47;66.46;95061.47;4909021;28;20583;-81
2023/10/27 00:19:40;;;;;;;4.60;1.83;;;;;;;14.47;66.72;95049.16;4926381;28;20383;-81
2023/10/27 00:22:05;;;;;;;5.07;1.45;;;;;;;14.46;65.88;95047.59;4910232;28;20947;-80
2023/10/27 00:24:31;;;;;;;5.38;1.50;;;;;;;14.46;65.95;95052.84;4899269;28;20283;-80
2023/10/27 00:26:56;;;;;;;2.88;1.30;;;;;;;14.46;65.97;95047.59;4908149;28;20154;-80
2023/10/27 00:29:21;;;;;;;3.63;1.70;;;;;;;14.52;65.97;95053.44;4908812;28;20216;-81
2023/10/27 00:31:47;;;;;;;4.35;1.45;;;;;;;14.48;65.94;95047.28;4922608;28;20153;-80
2023/10/27 00:34:13;;;;;;;4.65;1.40;;;;;;;14.48;66.33;95047.28;4911071;28;20184;-80
2023/10/27 00:36:38;;;;;;;4.50;1.58;;;;;;;14.51;66.29;95038.78;4904277;28;20696;-81
2023/10/27 00:39:04;;;;;;;4.07;1.60;;;;;;;14.45;65.92;95034.84;4910647;28;20270;-81
2023/10/27 00:41:30;;;;;;;3.72;2.13;;;;;;;14.49;66.09;95041.72;4929733;28;20322;-81
2023/10/27 00:43:55;;;;;;;4.55;1.58;;;;;;;14.53;66.23;95040.00;4903198;28;20344;-80
2023/10/27 00:46:20;;;;;;;4.60;1.70;;;;;;;14.55;66.86;95034.47;4900937;28;20169;-80
2023/10/27 00:48:46;;;;;;;5.28;1.60;;;;;;;14.55;65.82;95034.47;4897603;28;20710;-81
2023/10/27 00:51:12;;;;;;;3.78;1.70;;;;;;;14.54;66.04;95030.28;4927346;28;20307;-81
2023/10/27 00:53:38;;;;;;;3.45;1.80;;;;;;;14.54;66.90;95028.44;4926036;28;20634;-80
2023/10/27 00:56:04;;;;;;;3.65;1.58;;;;;;;14.58;66.49;95018.06;4882295;28;20215;-81
2023/10/27 00:58:30;;;;;;;5.78;2.38;;;;;;;14.59;66.05;95022.28;4906223;28;20287;-81
2023/10/27 01:00:56;;;;;;;6.00;1.83;;;;;;;14.63;66.04;95025.75;4906268;28;20283;-81
2023/10/27 01:03:23;;;;;;;5.28;1.95;;;;;;;14.63;66.31;95023.16;4887481;28;20191;-80
2023/10/27 01:05:48;;;;;;;5.68;1.67;;;;;;;14.61;66.35;95012.22;4907905;28;20292;-81
2023/10/27 01:08:13;;;;;;;4.50;1.42;;;;;;;14.65;66.63;95014.97;4906215;28;20189;-81
2023/10/27 01:10:39;;;;;;;4.80;2.00;;;;;;;14.68;65.95;95016.94;4891416;28;20084;-81
2023/10/27 01:13:04;;;;;;;4.82;1.83;;;;;;;14.60;65.68;94998.38;4907842;28;20165;-80
2023/10/27 01:15:30;;;;;;;4.43;1.60;;;;;;;14.62;66.76;95005.91;4900014;28;20192;-79
2023/10/27 01:17:56;;;;;;;4.05;1.45;;;;;;;14.65;66.29;95000.03;4898640;28;20191;-79
2023/10/27 01:20:21;;;;;;;4.47;1.33;;;;;;;14.61;66.60;94999.88;4910234;28;20210;-80
2023/10/27 01:22:47;;;;;;;5.82;1.85;;;;;;;14.62;66.33;95003.28;4893807;28;20185;-80
2023/10/27 01:25:14;;;;;;;7.78;2.28;;;;;;;14.71;65.83;95003.97;4891166;28;20187;-80
2023/10/27 01:27:40;;;;;;;6.93;1.80;;;;;;;14.76;66.07;95003.75;4904643;28;20242;-80
2023/10/27 01:30:06;;;;;;;9.18;2.03;;;;;;;14.70;66.22;94994.59;4923018;28;20670;-80
2023/10/27 01:32:32;;;;;;;4.05;1.52;;;;;;;14.73;65.78;95001.03;4918675;28;20192;-80
2023/10/27 01:34:58;;;;;;;7.68;2.00;;;;;;;14.79;66.24;95000.50;4923747;28;20138;-79
2023/10/27 01:37:23;;;;;;;5.55;1.58;;;;;;;14.82;66.40;95006.16;4923835;28;20699;-80
2023/10/27 01:39:49;;;;;;;4.57;2.00;;;;;;;14.82;65.92;94998.31;4919022;28;20251;-80
2023/10/27 01:42:15;;;;;;;5.22;1.85;;;;;;;14.84;65.75;95001.38;4915511;28;20176;-80
2023/10/27 01:44:43;;;;;;;6.13;2.13;;;;;;;14.77;65.76;94992.19;4919040;28;20686;-79
2023/10/27 01:47:08;;;;;;;4.43;2.17;;;;;;;14.74;65.71;94987.59;4908840;28;20259;-80
2023/10/27 01:49:34;;;;;;;5.88;1.83;;;;;;;14.76;65.81;94984.66;4906814;28;20775;-81
2023/10/27 01:51:59;;;;;;;7.60;2.25;;;;;;;14.76;66.22;94990.66;4906627;28;20278;-80
2023/10/27 01:54:24;;;;;;;5.68;2.40;;;;;;;14.70;66.27;94981.50;4922001;28;20178;-80
2023/10/27 01:56:50;;;;;;;6.47;2.35;;;;;;;14.76;66.11;94980.19;4891391;28;20224;-80
2023/10/27 01:59:15;;;;;;;7.32;2.88;;;;;;;14.72;66.00;94978.53;4904687;28;20224;-80
2023/10/27 02:01:40;;;;;;;3.78;2.00;;;;;;;14.78;65.54;94979.84;4890418;28;20208;-81
2023/10/27 02:04:06;;;;;;;6.93;2.25;;;;;;;14.70;65.95;94971.00;4899709;28;20623;-80
2023/10/27 02:06:31;;;;;;;5.95;2.00;;;;;;;14.72;65.51;94975.91;4910905;28;20326;-81
2023/10/27 02:08:57;;;;;;;4.93;2.10;;;;;;;14.67;65.71;94970.88;4915371;28;20282;-80
2023/10/27 02:11:23;;;;;;;5.70;2.13;;;;;;;14.71;65.78;94972.53;4891849;28;20331;-81
2023/10/27 02:13:49;;;;;;;5.88;2.33;;;;;;;14.71;65.47;94969.91;4907651;28;20291;-80
2023/10/27 02:16:14;;;;;;;4.13;1.88;;;;;;;14.75;65.52;94962.16;4905806;28;20597;-79
2023/10/27 02:18:40;;;;;;;4.32;2.00;;;;;;;14.67;65.84;94953.31;4923619;28;20277;-81
2023/10/27 02:21:05;;;;;;;5.72;2.10;;;;;;;14.60;66.37;94955.72;4917755;28;20641;-81
2023/10/27 02:23:30;;;;;;;5.90;2.00;;;;;;;14.70;66.07;94957.13;4921806;28;20196;-81
2023/10/27 02:25:56;;;;;;;4.38;2.40;;;;;;;14.64;65.80;94956.59;4888324;28;20263;-81
2023/10/27 02:28:21;;;;;;;8.73;3.13;;;;;;;14.68;66.15;94946.97;4908220;28;20188;-81
2023/10/27 02:30:46;;;;;;;6.10;2.17;;;;;;;14.66;65.41;94951.78;4900393;28;20216;-81
2023/10/27 02:33:13;;;;;;;4.35;2.08;;;;;;;14.67;66.06;94939.44;4902416;28;20210;-81
2023/10/27 02:35:38;;;;;;;5.38;2.40;;;;;;;14.59;66.45;94933.97;4890578;28;20634;-81
2023/10/27 02:38:04;;;;;;;3.92;1.88;;;;;;;14.69;66.15;94943.28;4879686;28;20196;-81
2023/10/27 02:40:30;;;;;;;4.95;2.00;;;;;;;14.68;66.08;94936.50;4906857;28;20638;-83
2023/10/27 02:42:55;;;;;;;3.75;1.52;;;;;;;14.73;65.77;94940.78;4910521;28;20252;-81
2023/10/27 02:45:21;;;;;;;2.88;1.33;;;;;;;14.69;66.01;94932.81;4915524;28;20291;-81
2023/10/27 02:47:47;;;;;;;5.53;1.70;;;;;;;14.68;65.64;94931.25;4901349;28;20180;-81
2023/10/27 02:50:12;;;;;;;4.18;2.05;;;;;;;14.66;65.67;94928.22;4895059;28;20196;-81
2023/10/27 02:52:37;;;;;;;5.32;2.33;;;;;;;14.62;65.81;94932.59;4932318;28;20188;-82
2023/10/27 02:55:03;;;;;;;3.45;1.70;;;;;;;14.63;65.60;94923.63;4897289;28;20266;-82
2023/10/27 02:57:28;;;;;;;3.75;2.53;;;;;;;14.55;65.99;94919.22;4902009;28;20282;-81
2023/10/27 02:59:56;;;;;;;3.20;1.80;;;;;;;14.65;65.67;94924.09;4926980;28;20197;-81
2023/10/27 03:02:21;;;;;;;3.50;1.63;;;;;;;14.60;65.66;94919.06;4918560;28;20203;-81
2023/10/27 03:04:47;;;;;;;3.75;1.60;;;;;;;14.60;66.00;94913.81;4888721;28;20153;-82
2023/10/27 03:07:14;;;;;;;3.85;1.80;;;;;;;14.51;66.01;94907.88;4908985;28;20739;-82
2023/10/27 03:09:40;;;;;;;3.92;1.85;;;;;;;14.56;66.43;94905.03;4898425;28;20251;-82
2023/10/27 03:12:06;;;;;;;2.83;1.52;;;;;;;14.58;65.79;94908.91;4920227;28;20714;-82
2023/10/27 03:14:31;;;;;;;3.60;1.50;;;;;;;14.56;65.96;94907.66;4921400;28;20213;-82
2023/10/27 03:16:56;;;;;;;1.77;1.20;;;;;;;14.57;65.94;94912.56;4906694;28;20246;-82
2023/10/27 03:19:22;;;;;;;3.50;1.70;;;;;;;14.56;65.67;94910.28;4894111;28;20273;-82
2023/10/27 03:21:47;;;;;;;3.20;1.52;;;;;;;14.57;65.51;94917.06;4903862;28;20591;-82
2023/10/27 03:24:13;;;;;;;2.60;1.30;;;;;;;14.57;65.80;94924.91;4910005;28;20321;-81
2023/10/27 03:26:38;;;;;;;6.30;1.70;;;;;;;14.46;65.68;94908.81;4924489;28;20204;-82
2023/10/27 03:29:04;;;;;;;1.75;1.42;;;;;;;14.58;65.99;94929.03;4886288;28;20225;-82
2023/10/27 03:31:29;;;;;;;2.03;1.40;;;;;;;14.47;65.98;94914.84;4914703;28;20106;-82
2023/10/27 03:33:54;;;;;;;1.88;1.50;;;;;;;14.53;65.67;94924.78;4906016;28;20199;-82
2023/10/27 03:36:21;;;;;;;2.30;1.10;;;;;;;14.46;66.16;94914.06;4910735;28;20188;-83
2023/10/27 03:38:46;;;;;;;4.05;1.23;;;;;;;14.51;65.53;94920.94;4897611;28;20514;-83
2023/10/27 03:41:12;;;;;;;2.47;1.25;;;;;;;14.53;65.15;94913.53;4891197;28;20696;-83
2023/10/27 03:43:37;;;;;;;3.95;1.23;;;;;;;14.56;65.40;94920.75;4927911;28;20198;-83
2023/10/27 03:46:03;;;;;;;3.35;1.35;;;;;;;14.48;66.14;94916.38;4913117;28;20178;-83
2023/10/27 03:48:29;;;;;;;2.05;1.70;;;;;;;14.49;65.39;94916.03;4912029;28;20352;-82
2023/10/27 03:50:55;;;;;;;1.25;1.10;;;;;;;14.43;65.34;94912.13;4901113;28;20214;-81
2023/10/27 03:53:20;;;;;;;3.65;1.30;;;;;;;14.44;65.03;94903.16;4909742;28;20213;-83
2023/10/27 03:55:53;;;;;;;1.88;1.23;;;;;;;14.49;65.52;94904.81;4911537;28;20291;-82
2023/10/27 03:58:18;;;;;;;2.30;1.27;;;;;;;14.38;65.49;94905.22;4898962;28;20244;-82
2023/10/27 04:00:44;;;;;;;1.63;1.05;;;;;;;14.37;65.62;94897.69;4910484;28;20639;-82
2023/10/27 04:03:10;;;;;;;1.90;1.38;;;;;;;14.37;66.06;94908.16;4908989;28;20270;-83
2023/10/27 04:05:36;;;;;;;3.25;1.35;;;;;;;14.34;65.59;94893.88;4913504;28;20289;-83
2023/10/27 04:08:01;;;;;;;3.17;1.20;;;;;;;14.35;65.94;94908.47;4888875;28;20727;-82
2023/10/27 04:10:28;;;;;;;3.03;1.58;;;;;;;14.27;65.35;94901.47;4895569;28;20546;-81
2023/10/27 04:12:53;;;;;;;3.63;1.40;;;;;;;14.32;65.80;94897.91;4908500;28;20750;-83
2023/10/27 04:15:19;;;;;;;2.25;1.20;;;;;;;14.33;66.41;94902.06;4913744;28;20180;-83
2023/10/27 04:17:44;;;;;;;6.63;2.05;;;;;;;14.30;65.49;94906.06;4893897;28;20173;-82
2023/10/27 04:20:10;;;;;;;3.40;1.30;;;;;;;14.24;65.79;94913.38;4897729;28;20188;-82
2023/10/27 04:22:35;;;;;;;3.25;1.40;;;;;;;14.34;65.71;94912.22;4902396;28;20258;-82
2023/10/27 04:25:00;;;;;;;3.05;1.67;;;;;;;14.17;65.45;94896.66;4889024;28;20309;-82
2023/10/27 04:27:28;;;;;;;4.63;1.30;;;;;;;14.28;65.38;94905.63;4906600;28;20261;-81
2023/10/27 04:29:53;;;;;;;3.10;1.20;;;;;;;14.39;65.24;94900.75;4897744;28;20310;-82
2023/10/27 04:32:20;;;;;;;4.03;1.33;;;;;;;14.28;65.55;94884.69;4917084;28;20641;-83
2023/10/27 04:34:46;;;;;;;2.13;1.20;;;;;;;14.31;65.90;94897.16;4888061;28;20200;-83
2023/10/27 04:37:11;;;;;;;3.45;1.38;;;;;;;14.30;65.46;94885.13;4912683;28;20109;-83
2023/10/27 04:39:37;;;;;;;2.65;1.23;;;;;;;14.33;65.68;94896.81;4913297;28;20287;-83
2023/10/27 04:42:02;;;;;;;2.00;1.70;;;;;;;14.22;65.83;94878.91;4910386;28;20574;-83
2023/10/27 04:44:27;;;;;;;2.38;1.20;;;;;;;14.24;65.58;94878.59;4908815;28;20215;-83
2023/10/27 04:46:53;;;;;;;2.17;1.35;;;;;;;14.30;65.58;94885.13;4897059;28;20666;-82
2023/10/27 04:49:18;;;;;;;3.22;1.40;;;;;;;14.40;65.74;94887.34;4914309;28;20278;-83
2023/10/27 04:51:44;;;;;;;1.77;1.10;;;;;;;14.28;65.37;94871.59;4922153;28;20264;-83
2023/10/27 04:54:10;;;;;;;3.60;1.70;;;;;;;14.30;66.14;94879.91;4906863;28;20600;-83
2023/10/27 04:56:35;;;;;;;2.50;1.35;;;;;;;14.22;65.08;94857.97;4921581;28;20102;-83
2023/10/27 04:59:01;;;;;;;1.63;1.17;;;;;;;14.36;65.42;94862.91;4890897;28;20240;-83
2023/10/27 05:01:26;;;;;;;1.60;1.10;;;;;;;14.30;65.49;94852.97;4911621;28;20240;-84
2023/10/27 05:03:51;;;;;;;2.92;0.82;;;;;;;14.39;65.55;94858.84;4904026;28;20165;-82
2023/10/27 05:06:17;;;;;;;2.53;0.82;;;;;;;14.36;65.37;94857.66;4897922;28;20274;-83
2023/10/27 05:08:42;;;;;;;1.10;0.80;;;;;;;14.39;65.05;94846.56;4897279;28;20187;-83
2023/10/27 05:11:08;;;;;;;1.38;0.90;;;;;;;14.41;65.21;94851.44;4893495;28;20248;-83
2023/10/27 05:13:33;;;;;;;1.30;0.70;;;;;;;14.35;65.11;94860.63;4917062;28;20270;-83
2023/10/27 05:15:59;;;;;;;2.55;0.70;;;;;;;14.33;64.67;94857.56;4906434;28;20075;-84
2023/10/27 05:18:25;;;;;;;2.10;0.68;;;;;;;14.20;65.52;94852.28;4905358;28;20593;-83
2023/10/27 05:20:50;;;;;;;1.38;0.90;;;;;;;14.29;65.53;94860.06;4903223;28;20639;-83
2023/10/27 05:23:16;;;;;;;1.08;0.63;;;;;;;14.31;65.21;94862.34;4904240;28;20356;-82
2023/10/27 05:25:41;;;;;;;1.70;0.77;;;;;;;14.21;65.23;94850.44;4905229;28;20277;-84
2023/10/27 05:28:09;;;;;;;0.65;0.40;;;;;;;14.20;65.75;94848.91;4885743;28;20279;-83
2023/10/27 05:30:35;;;;;;;1.00;0.50;;;;;;;14.25;65.46;94853.94;4894016;28;20329;-83
2023/10/27 05:33:01;;;;;;;0.38;0.32;;;;;;;14.30;65.75;94852.97;4880999;28;20241;-84
2023/10/27 05:35:26;;;;;;;1.10;0.50;;;;;;;14.26;65.33;94852.84;4907657;28;20231;-84
2023/10/27 05:37:52;;;;;;;1.27;0.40;;;;;;;14.26;65.37;94844.22;4884975;28;20298;-84
2023/10/27 05:40:17;;;;;;;0.40;0.40;;;;;;;14.21;65.66;94848.59;4907814;28;20257;-83
2023/10/27 05:42:43;;;;;;;0.38;0.38;;;;;;;13.94;66.47;94852.53;4928246;28;20645;-81
2023/10/27 05:45:11;;;;;;;0.70;0.30;;;;;;;14.17;66.37;94854.78;4923443;28;20694;-82
2023/10/27 05:47:38;;;;;;;0.43;0.30;;;;;;;14.14;66.50;94835.28;4893404;28;20101;-83
2023/10/27 05:50:05;;;;;;;0.43;0.40;;;;;;;14.02;66.18;94846.47;4909629;28;20212;-81
2023/10/27 05:52:30;;;;;;;0.40;0.30;;;;;;;14.15;66.02;94849.88;4921311;28;20253;-82
2023/10/27 05:54:56;;;;;;;0.75;0.40;;;;;;;13.98;66.56;94842.19;4924359;28;20252;-82
2023/10/27 05:57:21;;;;;;;1.25;0.40;;;;;;;13.99;66.72;94841.88;4909779;28;20211;-81
2023/10/27 05:59:46;;;;;;;1.25;0.40;;;;;;;14.06;66.65;94851.81;4903769;28;20271;-81
2023/10/27 06:02:12;;;;;;;0.45;0.40;;;;;;;14.24;66.24;94857.66;4920713;28;20214;-82
2023/10/27 06:04:39;;;;;;;0.50;0.40;;;;;;;13.88;66.42;94840.78;4905724;28;20182;-82
2023/10/27 06:07:04;;;;;;;0.70;0.40;;;;;;;13.83;67.22;94856.66;4898648;28;20228;-81
2023/10/27 06:09:31;;;;;;;1.58;0.40;;;;;;;13.99;66.56;94869.91;4890224;28;20192;-81
2023/10/27 06:11:57;;;;;;;0.55;0.55;;;;;;;14.03;66.54;94866.31;4896311;28;20274;-82
2023/10/27 06:14:22;;;;;;;1.90;0.45;;;;;;;14.04;66.54;94854.00;4896121;28;20378;-82
2023/10/27 06:16:48;;;;;;;1.02;0.38;;;;;;;13.94;66.46;94857.78;4896113;28;20428;-81
2023/10/27 06:19:13;;;;;;;1.25;0.43;;;;;;;14.09;66.44;94863.50;4927341;28;20253;-82
2023/10/27 06:21:39;;;;;;;0.43;0.43;;;;;;;13.89;66.79;94860.59;4894003;28;20215;-82
2023/10/27 06:24:07;;;;;;;0.57;0.40;;;;;;;13.80;66.98;94873.00;4909192;28;20170;-81
2023/10/27 06:26:32;;;;;;;1.00;0.50;;;;;;;13.73;67.23;94881.34;4917003;28;20255;-82
2023/10/27 06:28:58;;;;;;;1.00;0.50;;;;;;;13.57;67.72;94880.41;4895194;28;20184;-84
2023/10/27 06:31:23;;;;;;;0.60;0.38;;;;;;;13.69;66.88;94880.44;4907946;28;20282;-83
2023/10/27 06:33:48;;;;;;;0.70;0.30;;;;;;;13.96;67.16;94891.47;4905809;28;20249;-82
2023/10/27 06:36:14;;;;;;;2.15;0.43;;;;;;;14.08;66.15;94901.97;4911506;28;20388;-81
2023/10/27 06:38:39;;;;;;;0.35;0.35;;;;;;;14.11;66.04;94905.81;4911226;28;20203;-81
2023/10/27 06:41:04;;;;;;;0.85;0.40;;;;;;;13.59;67.25;94886.84;4909261;28;20295;-84
2023/10/27 06:43:30;;;;;;;0.68;0.30;;;;;;;13.90;66.42;94908.44;4907932;28;20193;-81
2023/10/27 06:45:55;;;;;;;0.82;0.30;;;;;;;13.84;66.41;94908.63;4887126;28;20287;-83
2023/10/27 06:48:21;;;;;;;0.50;0.38;;;;;;;13.80;67.13;94907.75;4909359;28;20271;-81
2023/10/27 06:50:46;;;;;;;0.75;0.40;;;;;;;13.68;67.63;94926.78;4908853;28;20200;-80
2023/10/27 06:53:12;;;;;;;0.82;0.30;;;;;;;13.79;67.02;94929.00;4906955;28;20243;-82
2023/10/27 06:55:37;;;;;;;1.08;0.40;;;;;;;13.51;68.02;94936.59;4906616;28;20792;-80
2023/10/27 06:58:04;;;;;;;1.40;0.50;;;;;;;13.61;68.38;94957.91;4903219;28;20176;-81
2023/10/27 07:00:30;;;;;;;1.42;0.77;;;;;;;13.57;68.36;94964.84;4919857;28;20271;-82
2023/10/27 07:02:56;;;;;;;0.60;0.30;;;;;;;13.68;67.42;94971.22;4911501;28;20878;-80
2023/10/27 07:05:23;;;;;;;0.47;0.30;;;;;;;13.40;68.45;94968.34;4911313;28;20049;-81
2023/10/27 07:07:48;;;;;;;2.25;0.40;;;;;;;13.70;67.91;94978.00;4917961;28;20112;-82
2023/10/27 07:10:14;;;;;;;0.70;0.28;;;;;;;13.64;67.51;94991.25;4919614;28;20696;-79
2023/10/27 07:12:39;;;;;;;1.42;0.45;;;;;;;13.74;67.13;94995.34;4903546;28;20112;-80
2023/10/27 07:15:05;;;;;;;1.27;0.40;;;;;;;13.77;67.39;94999.19;4917725;28;20049;-81
2023/10/27 07:17:30;;;;;;;0.45;0.45;;;;;;;13.82;66.86;95002.34;4915967;28;20092;-81
2023/10/27 07:19:56;;;;;;;1.10;0.40;;;;;;;13.81;67.04;95013.91;4918071;28;20033;-80
2023/10/27 07:22:21;;;;;;;2.00;0.40;;;;;;;13.81;67.33;95027.00;4904265;28;20026;-81
2023/10/27 07:24:47;;;;;;;0.40;0.30;;;;;;;13.88;66.79;95016.03;4921044;28;20593;-79
2023/10/27 07:27:13;;;;;;;0.60;0.40;;;;;;;14.03;66.34;95028.56;4907707;28;20021;-82
2023/10/27 07:29:38;;;;;;;1.02;0.80;;;;;;;13.95;67.18;95025.97;4920233;28;20582;-82
2023/10/27 07:32:05;;;;;;;1.00;0.50;;;;;;;13.98;66.83;95038.41;4938684;28;20089;-80
2023/10/27 07:34:31;;;;;;;0.73;0.73;;;;;;;13.89;66.66;95030.63;4940122;28;20084;-81
2023/10/27 07:36:56;;;;;;;1.60;0.50;;;;;;;13.92;66.77;95045.69;4924364;28;20038;-79
2023/10/27 07:39:22;;;;;;;0.43;0.40;;;;;;;13.96;66.71;95046.59;4899908;28;20478;-80
2023/10/27 07:41:50;;;;;;;0.88;0.45;;;;;;;14.08;66.72;95056.34;4922603;28;20723;-82
2023/10/27 07:44:16;;;;;;;0.52;0.50;;;;;;;13.99;66.46;95063.50;4938858;28;20357;-80
2023/10/27 07:46:41;;;;;;;1.08;0.63;;;;;;;13.93;66.42;95065.56;4940181;28;20113;-80
2023/10/27 07:49:06;;;;;;;1.63;0.50;;;;;;;14.10;65.92;95069.13;4940144;28;20033;-80
2023/10/27 07:51:32;;;;;;;0.80;0.50;;;;;;;14.16;65.46;95083.56;4905299;28;20042;-81
2023/10/27 07:53:58;;;;;;;1.05;0.47;;;;;;;14.01;66.22;95085.66;4923331;28;20087;-82
2023/10/27 07:56:23;;;;;;;6.88;4.45;;;;;;;14.16;65.66;95096.66;4890832;28;20200;-82
2023/10/27 07:58:49;;;;;;;1.77;0.95;;;;;;;14.16;65.13;95086.19;4904794;28;20203;-82
2023/10/27 08:01:15;;;;;;;0.70;0.55;;;;;;;14.21;65.54;95088.63;4908005;28;20217;-81
2023/10/27 08:03:41;;;;;;;3.50;1.80;;;;;;;14.16;65.79;95086.19;4907364;28;20318;-80
2023/10/27 08:06:07;;;;;;;1.05;0.88;;;;;;;14.19;65.64;95094.16;4905574;28;20286;-80
2023/10/27 08:08:33;;;;;;;1.90;1.60;;;;;;;14.33;64.83;95104.38;4926947;28;20199;-81
2023/10/27 08:10:59;;;;;;;0.95;0.65;;;;;;;14.27;65.98;95110.88;4913025;28;20355;-82
2023/10/27 08:13:25;;;;;;;3.42;0.57;;;;;;;14.34;65.57;95113.00;4893233;28;20377;-82
2023/10/27 08:15:50;;;;;;;0.50;0.47;;;;;;;14.39;65.00;95116.22;4924910;28;20216;-80
2023/10/27 08:18:16;;;;;;;0.90;0.70;;;;;;;14.43;64.73;95113.72;4929704;28;20303;-81
2023/10/27 08:20:42;;;;;;;2.50;0.60;;;;;;;14.34;64.67;95113.00;4911870;28;20207;-82
2023/10/27 08:23:07;;;;;;;1.95;0.60;;;;;;;14.35;65.03;95123.16;4909160;28;20616;-80
2023/10/27 08:25:33;;;;;;;1.67;0.40;;;;;;;14.39;64.77;95126.69;4911935;28;20622;-80
2023/10/27 08:27:59;;;;;;;0.98;0.70;;;;;;;14.42;64.39;95131.25;4911806;28;20286;-81
2023/10/27 08:30:24;;;;;;;0.85;0.50;;;;;;;14.47;65.04;95129.56;4927510;28;20320;-79
2023/10/27 08:32:49;;;;;;;0.70;0.55;;;;;;;14.42;65.51;95130.50;4914126;28;20282;-80
2023/10/27 08:35:15;;;;;;;0.93;0.60;;;;;;;14.39;65.49;95123.28;4911581;28;20197;-82
2023/10/27 08:37:40;;;;;;;0.70;0.52;;;;;;;14.43;65.43;95127.56;4928684;28;20238;-81
2023/10/27 08:40:15;;;;;;;0.77;0.70;;;;;;;14.69;65.23;95144.97;4926037;28;20160;-81
2023/10/27 08:42:42;;;;;;;1.63;0.70;;;;;;;14.54;65.80;95146.28;4913211;28;20167;-81
2023/10/27 08:45:08;;;;;;;1.58;1.10;;;;;;;14.51;65.91;95146.16;4892785;28;20176;-81
2023/10/27 08:47:34;;;;;;;2.67;0.90;;;;;;;14.48;66.48;95149.41;4912182;28;20209;-80
2023/10/27 08:50:04;;;;;;;1.25;1.15;;;;;;;14.53;66.81;95157.84;4927945;28;20273;-82
2023/10/27 08:52:31;;;;;;;1.90;1.10;;;;;;;14.61;66.13;95158.91;4909994;28;20208;-82
2023/10/27 08:55:01;;;;;;;1.55;1.05;;;;;;;14.73;65.42;95160.81;4908908;28;20678;-82
2023/10/27 08:57:26;;;;;;;2.13;1.20;;;;;;;14.57;65.69;95161.34;4893602;28;20650;-80
2023/10/27 08:59:52;;;;;;;2.33;1.35;;;;;;;14.68;65.63;95166.25;4909306;28;20252;-82
2023/10/27 09:02:30;;;;;;;3.92;1.80;;;;;;;14.70;66.22;95159.63;4905101;28;20223;-82
2023/10/27 09:05:04;;;;;;;4.13;1.33;;;;;;;14.85;66.07;95162.72;4907899;28;20210;-80
2023/10/27 09:07:36;;;;;;;2.85;1.42;;;;;;;14.85;66.77;95162.72;4899775;28;20233;-79
2023/10/27 09:10:04;;;;;;;1.67;1.50;;;;;;;14.93;66.03;95170.50;4923365;28;20193;-81
2023/10/27 09:12:36;;;;;;;1.73;1.25;;;;;;;15.07;66.26;95170.25;4896483;28;20266;-82
2023/10/27 09:15:04;;;;;;;4.28;1.63;;;;;;;15.06;66.02;95155.63;4910266;28;20099;-83
2023/10/27 09:17:31;;;;;;;2.13;1.30;;;;;;;15.26;65.75;95180.25;4910989;28;20665;-81
2023/10/27 09:20:07;;;;;;;2.38;1.40;;;;;;;15.44;65.56;95175.59;4912726;28;20297;-80
2023/10/27 09:22:32;;;;;;;2.40;1.20;;;;;;;15.37;64.88;95170.13;4905947;28;20103;-82
2023/10/27 09:25:15;;;;;;;1.20;1.10;;;;;;;15.49;64.10;95177.22;4908206;28;20169;-81
2023/10/27 09:27:45;;;;;;;1.95;1.20;;;;;;;15.33;64.86;95184.97;4928518;28;20367;-80
2023/10/27 09:30:13;;;;;;;3.20;1.60;;;;;;;15.16;64.98;95175.41;4901677;28;20265;-81
2023/10/27 09:32:40;;;;;;;4.47;1.60;;;;;;;15.16;64.80;95188.50;4916237;28;20196;-82
2023/10/27 09:35:10;;;;;;;4.80;2.33;;;;;;;15.36;64.49;95187.69;4912005;28;20234;-80
2023/10/27 09:37:38;;;;;;;2.75;1.40;;;;;;;15.32;65.40;95188.69;4892759;28;20288;-82
2023/10/27 09:40:09;;;;;;;2.35;1.30;;;;;;;15.47;64.88;95180.22;4918751;28;20157;-81
2023/10/27 09:42:37;;;;;;;1.40;1.30;;;;;;;15.52;65.84;95187.88;4912275;28;20173;-82
2023/10/27 09:45:07;;;;;;;2.55;1.20;;;;;;;15.49;65.39;95182.47;4900381;28;20274;-81
2023/10/27 09:47:34;;;;;;;4.30;1.35;;;;;;;15.58;64.90;95192.91;4892363;28;20220;-80
2023/10/27 09:50:06;;;;;;;2.35;1.00;;;;;;;15.70;64.47;95183.19;4907555;28;20161;-80
2023/10/27 09:52:37;;;;;;;2.38;1.08;;;;;;;15.52;64.64;95182.63;4875905;28;20173;-81
2023/10/27 09:55:03;;;;;;;2.63;1.50;;;;;;;15.45;65.03;95182.38;4908741;28;20600;-81
2023/10/27 09:57:28;;;;;;;2.03;1.13;;;;;;;15.54;64.76;95195.38;4911074;28;20195;-81
2023/10/27 09:59:55;;;;;;;4.65;1.30;;;;;;;15.58;65.47;95201.53;4889862;28;20210;-81
2023/10/27 10:02:23;;;;;;;4.65;1.75;;;;;;;15.49;65.72;95213.94;4903300;28;20169;-81
2023/10/27 10:04:51;;;;;;;4.50;2.00;;;;;;;15.53;65.79;95214.84;4905021;28;20180;-81
2023/10/27 10:07:38;;;;;;;2.92;1.45;;;;;;;15.66;64.76;95226.91;4915635;28;20272;-81
2023/10/27 10:10:32;;;;;;;2.67;1.45;;;;;;;15.70;64.23;95217.28;4898912;28;20242;-81
2023/10/27 10:13:12;;;;;;;2.90;1.73;;;;;;;15.54;65.42;95222.41;4919025;28;20164;-80
2023/10/27 10:15:47;;;;;;;5.45;2.55;;;;;;;15.59;65.35;95225.91;4927131;28;20282;-81
2023/10/27 10:18:21;;;;;;;;;;;;;;;15.96;63.51;95228.63;4908484;28;20631;-78
2023/10/27 10:20:52;;;;;;;2.83;1.20;;;;;;;15.78;65.90;95215.72;4917611;28;20083;-82
2023/10/27 10:23:18;;;;;;;3.58;1.65;;;;;;;15.82;63.83;95221.06;4901979;28;22421;-79
2023/10/27 10:25:54;;;;;;;3.33;1.65;;;;;;;16.02;63.42;95214.97;4902769;28;20117;-80
2023/10/27 10:28:19;;;;;;;3.47;1.92;;;;;;;15.85;65.45;95230.91;4897381;28;20162;-80
2023/10/27 10:30:46;;;;;;;4.30;2.15;;;;;;;16.04;63.98;95230.38;4927875;28;20309;-80
2023/10/27 10:33:15;;;;;;;4.15;1.63;;;;;;;15.88;65.53;95230.25;4893305;28;20193;-80
2023/10/27 10:35:45;;;;;;;5.20;1.50;;;;;;;15.71;65.19;95210.19;4907031;28;20193;-80
2023/10/27 10:38:38;;;;;;;4.40;1.45;;;;;;;16.29;64.05;95226.66;4909942;28;20166;-81
2023/10/27 10:41:03;;;;;;;4.15;1.75;;;;;;;16.38;63.93;95229.22;4911661;28;20213;-80
2023/10/27 10:43:39;;;;;;;5.47;1.48;;;;;;;16.64;63.84;95228.09;4911920;28;20208;-80
2023/10/27 10:46:12;;;;;;;4.75;1.80;;;;;;;16.68;62.65;95228.94;4912918;28;20240;-80
2023/10/27 10:48:47;;;;;;;3.30;1.45;;;;;;;16.93;62.40;95229.69;4904618;28;20265;-80
2023/10/27 10:51:15;;;;;;;3.00;1.75;;;;;;;16.83;62.67;95233.50;4905615;28;20181;-81
2023/10/27 10:53:41;;;;;;;2.75;1.33;;;;;;;16.70;62.50;95226.00;4915628;28;20211;-81
2023/10/27 10:56:07;;;;;;;2.00;1.00;;;;;;;16.60;61.65;95222.69;4920402;28;20727;-80
2023/10/27 10:58:37;;;;;;;4.07;1.35;;;;;;;16.75;61.46;95237.03;4915812;28;20212;-80
2023/10/27 11:01:03;;;;;;;5.32;1.80;;;;;;;16.34;61.87;95223.06;4903499;28;20168;-79
2023/10/27 11:03:31;;;;;;;2.67;0.90;;;;;;;16.13;62.04;95225.81;4913321;28;20735;-80
2023/10/27 11:06:02;;;;;;;3.05;1.48;;;;;;;16.14;62.95;95226.56;4911235;28;20348;-80
2023/10/27 11:08:34;;;;;;;2.88;1.15;;;;;;;16.03;63.24;95234.09;4915715;28;20196;-80
2023/10/27 11:11:04;;;;;;;3.55;1.38;;;;;;;15.87;64.83;95236.59;4895040;28;20266;-80
2023/10/27 11:13:31;;;;;;;3.95;1.13;;;;;;;16.07;64.96;95242.84;4894419;28;20672;-80
2023/10/27 11:15:57;;;;;;;2.60;1.38;;;;;;;16.02;64.09;95233.34;4886238;28;20642;-79
2023/10/27 11:18:26;;;;;;;3.33;1.27;;;;;;;16.25;64.81;95236.31;4905384;28;20144;-80
2023/10/27 11:20:52;;;;;;;2.38;1.10;;;;;;;16.06;65.12;95223.72;4913514;28;20687;-80
2023/10/27 11:23:17;;;;;;;2.00;0.90;;;;;;;15.96;64.67;95231.25;4896889;28;20301;-79
2023/10/27 11:25:43;;;;;;;2.85;0.90;;;;;;;15.84;63.45;95224.91;4909058;28;20695;-80
2023/10/27 11:28:21;;;;;;;4.03;1.05;;;;;;;16.00;63.58;95232.13;4912138;28;20305;-80
2023/10/27 11:31:09;;;;;;;2.10;1.00;;;;;;;16.04;64.12;95225.91;4908638;28;20227;-80